Terminal Aerodrome Forecast
Issued by NWS

Home | Current Version | Previous Version | Graphics & Text | Print | Product List | Glossary On
Versions: 1 2 3 4 5 6 7 8 9 10 11 12 13 14 15 16
865
FTUS43 KEAX 301947 AAA
TAFSTJ
TAF AMD
KSTJ 301947Z 3020/3118 VRB05KT P6SM SCT050
      TEMPO 3020/3021 -RA BKN050
     FM310200 13005KT P6SM SCT250
     FM311300 15008KT P6SM VCTS BKN050CB=

USA.gov is the U.S. government's official web portal to all federal, state and local government web resources and services.